createdAt,value
2022-12-08T00:01:51.854Z,3.10
2022-12-08T00:04:19.891Z,3.10
2022-12-08T00:07:05.961Z,4.10
2022-12-08T00:09:38.957Z,3.50
2022-12-08T00:12:12.909Z,2.20
2022-12-08T00:14:42.941Z,3.60
2022-12-08T00:17:12.660Z,1.50
2022-12-08T00:19:41.283Z,3.40
2022-12-08T00:22:10.441Z,2.50
2022-12-08T00:24:39.947Z,3.50
2022-12-08T00:27:09.759Z,2.90
2022-12-08T00:29:38.533Z,1.90
2022-12-08T00:32:06.797Z,3.70
2022-12-08T00:34:34.942Z,2.90
2022-12-08T00:37:02.713Z,2.70
2022-12-08T00:39:30.397Z,2.10
2022-12-08T00:42:13.213Z,2.80
2022-12-08T00:44:42.566Z,3.40
2022-12-08T00:47:11.566Z,2.40
2022-12-08T00:49:39.309Z,3.70
2022-12-08T00:52:07.012Z,4.10
2022-12-08T00:54:34.778Z,4.50
2022-12-08T00:57:02.474Z,3.60
2022-12-08T00:59:30.140Z,5.50
2022-12-08T01:01:57.843Z,4.00
2022-12-08T01:04:25.868Z,2.70
2022-12-08T01:06:53.631Z,2.70
2022-12-08T01:09:21.434Z,3.30
2022-12-08T01:11:49.190Z,4.50
2022-12-08T01:14:17.032Z,3.20
2022-12-08T01:16:45.104Z,4.50
2022-12-08T01:19:14.924Z,4.00
2022-12-08T01:21:44.712Z,4.50
2022-12-08T01:26:41.361Z,4.50
2022-12-08T01:29:10.391Z,3.60
2022-12-08T01:31:38.779Z,5.10
2022-12-08T01:34:08.418Z,4.40
2022-12-08T01:36:39.631Z,3.90
2022-12-08T01:39:12.716Z,4.20
2022-12-08T01:41:40.405Z,2.80
2022-12-08T01:44:11.532Z,4.40
2022-12-08T01:46:44.228Z,2.90
2022-12-08T01:49:31.058Z,3.60
2022-12-08T01:52:00.696Z,2.80
2022-12-08T01:54:33.734Z,3.10
2022-12-08T01:57:21.107Z,2.90
2022-12-08T01:59:56.479Z,3.00
2022-12-08T02:02:29.721Z,5.20
2022-12-08T02:04:57.545Z,5.10
2022-12-08T02:07:25.581Z,8.60
2022-12-08T02:09:54.229Z,4.70
2022-12-08T02:12:22.160Z,5.80
2022-12-08T02:14:49.944Z,6.80
2022-12-08T02:17:32.129Z,5.90
2022-12-08T02:20:37.939Z,4.50
2022-12-08T02:23:22.547Z,3.30
2022-12-08T02:26:09.247Z,5.40
2022-12-08T02:29:05.921Z,3.80
2022-12-08T02:31:55.576Z,4.70
2022-12-08T02:34:26.415Z,2.20
2022-12-08T02:37:02.928Z,3.40
2022-12-08T02:39:43.234Z,4.80
2022-12-08T02:42:21.027Z,3.90
2022-12-08T02:44:55.826Z,4.90
2022-12-08T02:47:26.312Z,4.40
2022-12-08T02:49:55.939Z,5.20
2022-12-08T02:52:23.563Z,6.40
2022-12-08T02:54:58.579Z,5.90
2022-12-08T02:57:47.802Z,6.00
2022-12-08T03:00:19.069Z,4.80
2022-12-08T03:03:14.454Z,4.70
2022-12-08T03:05:54.188Z,3.10
2022-12-08T03:08:32.917Z,2.60
2022-12-08T03:11:21.868Z,2.30
2022-12-08T03:13:52.695Z,5.20
2022-12-08T03:16:24.779Z,4.60
2022-12-08T03:19:06.914Z,5.20
2022-12-08T03:21:36.095Z,4.30
2022-12-08T03:24:07.447Z,4.30
2022-12-08T03:26:44.853Z,4.50
2022-12-08T03:29:13.327Z,6.30
2022-12-08T03:31:48.112Z,5.40
2022-12-08T03:34:17.680Z,6.70
2022-12-08T03:36:45.902Z,4.00
2022-12-08T03:39:14.577Z,6.20
2022-12-08T03:41:42.243Z,6.60
2022-12-08T03:44:09.929Z,5.10
2022-12-08T03:46:37.714Z,5.20
2022-12-08T03:49:05.382Z,4.00
2022-12-08T03:51:33.033Z,5.70
2022-12-08T03:54:00.695Z,7.30
2022-12-08T03:56:31.893Z,5.80
2022-12-08T03:59:00.444Z,6.90
2022-12-08T04:01:28.488Z,7.30
2022-12-08T04:03:56.656Z,5.90
2022-12-08T04:06:24.306Z,7.50
2022-12-08T04:08:52.605Z,6.90
2022-12-08T04:11:20.565Z,7.00
2022-12-08T04:13:48.656Z,6.10
2022-12-08T04:16:19.906Z,6.30
2022-12-08T04:18:47.820Z,7.00
2022-12-08T04:21:15.883Z,5.20
2022-12-08T04:23:43.962Z,5.00
2022-12-08T04:26:12.509Z,7.20
2022-12-08T04:28:40.164Z,7.40
2022-12-08T04:31:07.886Z,9.10
2022-12-08T04:33:35.737Z,7.40
2022-12-08T04:36:05.318Z,5.50
2022-12-08T04:38:33.185Z,8.50
2022-12-08T04:41:01.682Z,6.10
2022-12-08T04:43:29.536Z,12.00
2022-12-08T04:45:57.230Z,7.40
2022-12-08T04:48:26.229Z,7.70
2022-12-08T04:50:53.933Z,6.80
2022-12-08T04:53:21.727Z,5.60
2022-12-08T04:55:49.797Z,4.40
2022-12-08T04:58:19.712Z,7.00
2022-12-08T05:03:16.274Z,7.20
2022-12-08T05:05:44.743Z,8.50
2022-12-08T05:08:12.723Z,8.10
2022-12-08T05:10:40.530Z,6.50
2022-12-08T05:13:08.234Z,6.70
2022-12-08T05:15:35.957Z,6.70
2022-12-08T05:18:06.336Z,10.20
2022-12-08T05:20:34.475Z,6.60
2022-12-08T05:23:02.131Z,8.60
2022-12-08T05:25:29.884Z,5.30
2022-12-08T05:28:17.551Z,7.80
2022-12-08T05:30:45.176Z,7.30
2022-12-08T05:33:12.997Z,5.90
2022-12-08T05:35:40.819Z,5.90
2022-12-08T05:38:09.451Z,6.00
2022-12-08T05:40:39.157Z,6.70
2022-12-08T05:43:07.448Z,10.00
2022-12-08T05:45:35.146Z,8.10
2022-12-08T05:48:02.999Z,8.10
2022-12-08T05:50:30.842Z,9.10
2022-12-08T05:52:58.493Z,7.10
2022-12-08T05:55:26.144Z,5.00
2022-12-08T05:57:53.812Z,6.50
2022-12-08T06:00:21.925Z,5.80
2022-12-08T06:02:49.687Z,6.00
2022-12-08T06:05:17.450Z,9.00
2022-12-08T06:07:45.131Z,9.90
2022-12-08T06:10:12.898Z,13.80
2022-12-08T06:12:40.746Z,9.50
2022-12-08T06:15:08.816Z,10.40
2022-12-08T06:17:36.521Z,9.60
2022-12-08T06:20:05.246Z,6.20
2022-12-08T06:22:33.061Z,10.60
2022-12-08T06:25:00.732Z,8.10
2022-12-08T06:27:28.505Z,6.00
2022-12-08T06:29:56.258Z,7.30
2022-12-08T06:32:27.407Z,7.00
2022-12-08T06:34:55.497Z,5.60
2022-12-08T06:37:23.152Z,3.70
2022-12-08T06:39:51.785Z,11.70
2022-12-08T06:42:38.081Z,10.60
2022-12-08T06:45:06.798Z,11.20
2022-12-08T06:47:34.913Z,10.20
2022-12-08T06:50:03.076Z,9.80
2022-12-08T06:52:31.215Z,7.60
2022-12-08T06:54:58.932Z,10.00
2022-12-08T06:57:26.664Z,7.70
2022-12-08T06:59:54.346Z,8.20
2022-12-08T07:02:22.142Z,9.10
2022-12-08T07:04:51.314Z,6.30
2022-12-08T07:07:18.937Z,6.60
2022-12-08T07:09:46.634Z,4.80
2022-12-08T07:12:14.501Z,9.20
2022-12-08T07:14:42.148Z,14.30
2022-12-08T07:17:09.854Z,15.90
2022-12-08T07:19:37.600Z,8.70
2022-12-08T07:22:05.237Z,10.60
2022-12-08T07:24:33.319Z,9.80
2022-12-08T07:27:00.990Z,8.60
2022-12-08T07:29:28.785Z,5.80
2022-12-08T07:31:56.444Z,5.30
2022-12-08T07:34:24.205Z,5.70
2022-12-08T07:36:51.820Z,5.90
2022-12-08T07:39:19.511Z,6.10
2022-12-08T07:41:47.184Z,5.20
2022-12-08T07:44:14.960Z,4.60
2022-12-08T07:46:42.689Z,6.90
2022-12-08T07:49:10.405Z,9.00
2022-12-08T07:51:38.130Z,7.20
2022-12-08T07:54:05.869Z,8.70
2022-12-08T07:56:33.596Z,10.80
2022-12-08T07:59:02.869Z,9.70
2022-12-08T08:01:32.990Z,6.10
2022-12-08T08:04:04.476Z,8.40
2022-12-08T08:06:33.678Z,7.90
2022-12-08T08:09:01.345Z,5.40
2022-12-08T08:11:29.143Z,5.30
2022-12-08T08:13:57.914Z,5.90
2022-12-08T08:16:25.847Z,4.70
2022-12-08T08:18:54.157Z,6.30
2022-12-08T08:21:45.123Z,8.50
2022-12-08T08:24:09.996Z,6.80
2022-12-08T08:26:37.866Z,6.10
2022-12-08T08:29:05.560Z,5.30
2022-12-08T08:31:33.296Z,6.00
2022-12-08T08:34:05.953Z,11.70
2022-12-08T08:36:34.034Z,9.70
2022-12-08T08:39:02.111Z,6.50
2022-12-08T08:41:29.938Z,7.50
2022-12-08T08:43:57.649Z,4.80
2022-12-08T08:46:25.338Z,6.80
2022-12-08T08:48:53.070Z,6.60
2022-12-08T08:51:21.169Z,7.70
2022-12-08T08:53:48.923Z,4.90
2022-12-08T08:56:22.381Z,8.50
2022-12-08T08:58:51.587Z,8.10
2022-12-08T09:01:30.190Z,6.70
2022-12-08T09:03:58.228Z,6.60
2022-12-08T09:06:28.115Z,9.40
2022-12-08T09:08:56.342Z,8.00
2022-12-08T09:11:24.252Z,8.00
2022-12-08T09:13:53.464Z,7.90
2022-12-08T09:16:21.884Z,7.20
2022-12-08T09:18:50.320Z,7.80
2022-12-08T09:21:22.959Z,7.10
2022-12-08T09:23:52.788Z,7.30
2022-12-08T09:26:24.013Z,6.10
2022-12-08T09:28:53.185Z,7.40
2022-12-08T09:31:22.174Z,6.80
2022-12-08T09:33:52.988Z,9.50
2022-12-08T09:36:21.136Z,11.10
2022-12-08T09:38:50.275Z,12.00
2022-12-08T09:41:22.640Z,9.80
2022-12-08T09:44:21.364Z,7.50
2022-12-08T09:46:52.311Z,11.10
2022-12-08T09:49:28.199Z,13.10
2022-12-08T09:51:56.070Z,8.50
2022-12-08T09:54:34.343Z,9.10
2022-12-08T09:57:11.992Z,8.90
2022-12-08T09:59:41.363Z,9.20
2022-12-08T10:02:26.547Z,10.20
2022-12-08T10:04:56.426Z,13.30
2022-12-08T10:07:43.617Z,15.30
2022-12-08T10:10:33.329Z,16.60
2022-12-08T10:13:26.234Z,13.60
2022-12-08T10:16:29.873Z,12.30
2022-12-08T10:19:10.910Z,14.70
2022-12-08T10:21:40.639Z,9.70
2022-12-08T10:26:41.279Z,10.40
2022-12-08T10:29:13.611Z,10.30
2022-12-08T10:31:42.263Z,17.20
2022-12-08T10:34:19.015Z,14.20
2022-12-08T10:36:58.242Z,11.60
2022-12-08T10:39:31.255Z,17.70
2022-12-08T10:42:22.571Z,19.00
2022-12-08T10:45:08.712Z,14.20
2022-12-08T10:47:41.559Z,14.20
2022-12-08T10:52:43.023Z,10.70
2022-12-08T10:55:17.020Z,9.90
2022-12-08T10:57:45.493Z,13.60
2022-12-08T11:00:18.800Z,13.20
2022-12-08T11:02:57.351Z,18.20
2022-12-08T11:05:29.398Z,16.50
2022-12-08T11:07:57.787Z,17.30
2022-12-08T11:10:43.349Z,17.80
2022-12-08T11:13:22.716Z,14.90
2022-12-08T11:15:51.231Z,16.60
2022-12-08T11:18:22.896Z,18.00
2022-12-08T11:20:59.262Z,14.90
2022-12-08T11:23:29.109Z,14.00
2022-12-08T11:26:04.748Z,14.50
2022-12-08T11:28:32.455Z,19.60
2022-12-08T11:31:06.983Z,23.50
2022-12-08T11:33:34.854Z,19.60
2022-12-08T11:36:08.987Z,18.00
2022-12-08T11:38:42.293Z,13.60
2022-12-08T11:41:18.949Z,18.50
2022-12-08T11:43:58.783Z,9.80
2022-12-08T11:46:51.224Z,19.10
2022-12-08T11:49:20.605Z,11.20
2022-12-08T11:51:54.747Z,20.30
2022-12-08T11:54:34.653Z,19.00
2022-12-08T11:57:05.900Z,21.80
2022-12-08T11:59:41.886Z,19.30
2022-12-08T12:04:49.336Z,19.20
2022-12-08T12:07:39.551Z,27.10
2022-12-08T12:10:35.120Z,21.20
2022-12-08T12:13:40.455Z,20.60
2022-12-08T12:16:21.547Z,19.10
2022-12-08T12:19:16.994Z,18.90
2022-12-08T12:21:50.563Z,16.90
2022-12-08T12:24:27.501Z,17.50
2022-12-08T12:27:08.038Z,25.50
2022-12-08T12:29:38.453Z,30.80
2022-12-08T12:32:10.122Z,25.10
2022-12-08T12:34:48.921Z,25.60
2022-12-08T12:37:21.519Z,16.70
2022-12-08T12:40:03.645Z,16.10
2022-12-08T12:42:40.363Z,16.50
2022-12-08T12:45:17.096Z,13.20
2022-12-08T12:47:56.181Z,18.10
2022-12-08T12:50:33.995Z,30.10
2022-12-08T12:53:10.660Z,25.00
2022-12-08T12:55:55.453Z,28.30
2022-12-08T12:58:29.350Z,27.00
2022-12-08T13:01:15.124Z,24.70
2022-12-08T13:03:47.376Z,19.60
2022-12-08T13:06:23.009Z,15.40
2022-12-08T13:08:53.185Z,18.10
2022-12-08T13:11:21.783Z,17.70
2022-12-08T13:14:04.578Z,19.20
2022-12-08T13:16:37.366Z,31.40
2022-12-08T13:19:12.812Z,26.80
2022-12-08T13:21:40.904Z,26.60
2022-12-08T13:24:17.264Z,22.90
2022-12-08T13:26:49.399Z,23.70
2022-12-08T13:29:25.686Z,22.40
2022-12-08T13:32:00.930Z,25.90
2022-12-08T13:34:45.273Z,21.50
2022-12-08T13:37:15.799Z,23.90
2022-12-08T13:39:51.022Z,32.00
2022-12-08T13:42:27.451Z,26.00
2022-12-08T13:45:48.575Z,27.00
2022-12-08T13:48:30.138Z,25.80
2022-12-08T13:57:35.863Z,16.00
2022-12-08T14:00:15.201Z,26.10
2022-12-08T14:02:48.347Z,17.10
2022-12-08T14:05:23.790Z,27.00
2022-12-08T14:07:57.752Z,35.00
2022-12-08T14:10:28.271Z,30.10
2022-12-08T14:13:00.574Z,29.80
2022-12-08T14:15:32.696Z,26.30
2022-12-08T14:18:05.927Z,18.00
2022-12-08T14:20:57.744Z,18.40
2022-12-08T14:23:23.296Z,16.70
2022-12-08T14:25:50.945Z,16.90
2022-12-08T14:28:18.680Z,19.10
2022-12-08T14:30:49.556Z,43.00
2022-12-08T14:33:17.501Z,22.20
2022-12-08T14:35:51.484Z,17.30
2022-12-08T14:38:21.769Z,20.50
2022-12-08T14:41:07.184Z,17.50
2022-12-08T14:43:34.991Z,20.80
2022-12-08T14:46:06.504Z,20.50
2022-12-08T14:48:34.160Z,17.00
2022-12-08T14:51:04.729Z,16.50
2022-12-08T14:53:40.721Z,17.10
2022-12-08T14:56:24.556Z,21.10
2022-12-08T14:59:04.241Z,19.20
2022-12-08T15:01:33.000Z,15.10
2022-12-08T15:04:28.556Z,20.50
2022-12-08T15:07:20.005Z,21.50
2022-12-08T15:09:50.142Z,19.30
2022-12-08T15:12:27.125Z,40.30
2022-12-08T15:14:56.973Z,34.70
2022-12-08T15:17:39.919Z,39.00
2022-12-08T15:20:33.221Z,21.50
2022-12-08T15:23:02.688Z,15.80
2022-12-08T15:25:30.443Z,22.60
2022-12-08T15:27:58.214Z,28.70
2022-12-08T15:30:29.731Z,26.30
2022-12-08T15:32:57.414Z,23.30
2022-12-08T15:35:25.071Z,24.60
2022-12-08T15:37:52.891Z,22.60
2022-12-08T15:40:22.973Z,25.50
2022-12-08T15:42:50.721Z,19.50
2022-12-08T15:45:18.991Z,20.80
2022-12-08T15:47:46.645Z,23.10
2022-12-08T15:50:16.729Z,19.70
2022-12-08T15:52:44.500Z,20.30
2022-12-08T15:55:19.612Z,18.40
2022-12-08T15:58:45.052Z,20.80
2022-12-08T16:00:55.653Z,19.00
2022-12-08T16:04:13.854Z,26.10
2022-12-08T16:09:13.740Z,24.80
2022-12-08T16:12:07.110Z,30.40
2022-12-08T16:17:25.684Z,22.90
2022-12-08T16:19:53.997Z,22.80
2022-12-08T16:22:52.901Z,23.50
2022-12-08T16:25:20.419Z,20.70
2022-12-08T16:28:01.215Z,19.70
2022-12-08T16:30:31.203Z,13.30
2022-12-08T16:32:58.865Z,21.30
2022-12-08T16:35:26.574Z,16.50
2022-12-08T16:37:54.256Z,14.90
2022-12-08T16:40:22.657Z,14.80
2022-12-08T16:42:50.559Z,13.30
2022-12-08T16:45:25.755Z,14.10
2022-12-08T16:47:56.022Z,15.30
2022-12-08T16:50:32.146Z,15.90
2022-12-08T16:53:02.454Z,18.00
2022-12-08T16:55:30.403Z,16.90
2022-12-08T16:57:58.637Z,13.70
2022-12-08T17:00:28.911Z,11.40
2022-12-08T17:02:58.550Z,10.00
2022-12-08T17:05:26.881Z,13.50
2022-12-08T17:07:55.405Z,15.00
2022-12-08T17:10:26.078Z,9.10
2022-12-08T17:12:54.642Z,12.90
2022-12-08T17:15:25.566Z,9.20
2022-12-08T17:17:53.710Z,19.40
2022-12-08T17:20:24.771Z,21.00
2022-12-08T17:22:58.257Z,17.30
2022-12-08T17:25:26.926Z,11.40
2022-12-08T17:27:56.245Z,15.80
2022-12-08T17:30:24.003Z,14.00
2022-12-08T17:32:52.844Z,12.50
2022-12-08T17:35:20.645Z,9.40
2022-12-08T17:37:48.378Z,11.70
2022-12-08T17:40:16.644Z,10.90
2022-12-08T17:42:44.661Z,13.40
2022-12-08T17:45:12.378Z,9.70
2022-12-08T17:47:39.986Z,16.60
2022-12-08T17:50:08.722Z,15.60
2022-12-08T17:52:36.705Z,16.90
2022-12-08T17:55:04.764Z,14.40
2022-12-08T18:00:36.151Z,16.50
2022-12-08T18:03:02.680Z,15.00
2022-12-08T18:05:30.469Z,12.50
2022-12-08T18:07:57.500Z,10.40
2022-12-08T18:10:23.850Z,11.40
2022-12-08T18:12:50.321Z,11.00
2022-12-08T18:15:18.678Z,12.90
2022-12-08T18:17:45.293Z,12.90
2022-12-08T18:20:12.651Z,15.40
2022-12-08T18:22:40.366Z,17.90
2022-12-08T18:25:07.372Z,16.20
2022-12-08T18:27:37.418Z,16.60
2022-12-08T18:30:11.532Z,21.20
2022-12-08T18:32:37.859Z,16.30
2022-12-08T18:35:04.448Z,13.70
2022-12-08T18:37:30.715Z,12.60
2022-12-08T18:39:57.115Z,15.20
2022-12-08T18:42:23.425Z,18.40
2022-12-08T18:45:06.037Z,16.70
2022-12-08T18:47:34.728Z,17.50
2022-12-08T18:50:01.396Z,19.20
2022-12-08T18:52:32.173Z,17.00
2022-12-08T18:55:07.658Z,21.30
2022-12-08T18:57:37.910Z,23.40
2022-12-08T19:00:09.857Z,21.20
2022-12-08T19:02:38.170Z,20.70
2022-12-08T19:05:06.093Z,15.80
2022-12-08T19:07:32.383Z,21.20
2022-12-08T19:10:00.540Z,19.60
2022-12-08T19:12:27.571Z,21.90
2022-12-08T19:14:54.030Z,22.10
2022-12-08T19:17:20.486Z,19.50
2022-12-08T19:19:46.953Z,14.80
2022-12-08T19:22:13.417Z,25.20
2022-12-08T19:24:39.685Z,19.50
2022-12-08T19:27:06.128Z,18.80
2022-12-08T19:29:32.389Z,16.60
2022-12-08T19:31:59.615Z,20.40
2022-12-08T19:34:26.069Z,17.40
2022-12-08T19:36:52.475Z,15.70
2022-12-08T19:39:41.144Z,13.20
2022-12-08T19:49:03.341Z,14.90
2022-12-08T19:51:31.069Z,14.40
2022-12-08T19:53:58.759Z,13.50
2022-12-08T19:56:26.575Z,12.20
2022-12-08T19:58:54.267Z,11.20
2022-12-08T20:01:21.989Z,14.60
2022-12-08T20:03:49.666Z,14.60
2022-12-08T20:06:18.173Z,18.30
2022-12-08T20:08:50.432Z,18.80
2022-12-08T20:11:18.484Z,17.40
2022-12-08T20:13:47.661Z,18.40
2022-12-08T20:16:16.365Z,20.10
2022-12-08T20:18:44.359Z,20.80
2022-12-08T20:21:12.473Z,17.30
2022-12-08T20:23:40.335Z,19.20
2022-12-08T20:26:09.953Z,14.60
2022-12-08T20:28:38.116Z,14.20
2022-12-08T20:31:06.147Z,12.30
2022-12-08T20:33:33.995Z,14.40
2022-12-08T20:36:04.600Z,14.00
2022-12-08T20:38:32.287Z,14.20
2022-12-08T20:41:00.035Z,12.80
2022-12-08T20:43:27.728Z,19.80
2022-12-08T20:45:55.407Z,21.80
2022-12-08T20:48:23.061Z,19.90
2022-12-08T20:50:52.065Z,15.60
2022-12-08T20:53:19.767Z,19.30
2022-12-08T20:55:47.518Z,19.40
2022-12-08T20:58:15.373Z,14.10
2022-12-08T21:00:43.491Z,14.90
2022-12-08T21:03:12.755Z,19.40
2022-12-08T21:05:41.188Z,15.10
2022-12-08T21:08:08.946Z,8.20
2022-12-08T21:10:42.194Z,12.20
2022-12-08T21:13:11.900Z,20.10
2022-12-08T21:15:39.681Z,13.60
2022-12-08T21:18:07.458Z,17.20
2022-12-08T21:20:35.267Z,20.20
2022-12-08T21:23:02.946Z,19.40
2022-12-08T21:25:30.898Z,15.60
2022-12-08T21:27:58.917Z,21.00
2022-12-08T21:30:26.921Z,15.80
2022-12-08T21:32:54.694Z,18.70
2022-12-08T21:35:22.496Z,12.70
2022-12-08T21:37:50.202Z,15.70
2022-12-08T21:40:18.303Z,15.20
2022-12-08T21:42:46.256Z,29.50
2022-12-08T21:45:16.728Z,31.10
2022-12-08T21:47:46.367Z,17.40
2022-12-08T21:50:14.982Z,19.40
2022-12-08T21:52:45.335Z,14.60
2022-12-08T21:55:14.688Z,15.40
2022-12-08T21:57:43.169Z,16.90
2022-12-08T22:00:15.355Z,18.30
2022-12-08T22:02:43.797Z,16.70
2022-12-08T22:05:11.625Z,20.40
2022-12-08T22:07:40.874Z,25.70
2022-12-08T22:10:10.642Z,27.10
2022-12-08T22:12:38.875Z,15.40
2022-12-08T22:15:08.728Z,23.60
2022-12-08T22:17:41.765Z,17.00
2022-12-08T22:20:12.869Z,14.40
2022-12-08T22:22:40.886Z,12.90
2022-12-08T22:25:11.957Z,13.90
2022-12-08T22:27:40.669Z,12.20
2022-12-08T22:30:09.670Z,19.10
2022-12-08T22:32:37.884Z,21.00
2022-12-08T22:35:05.983Z,26.20
2022-12-08T22:37:33.910Z,22.60
2022-12-08T22:40:01.747Z,19.30
2022-12-08T22:42:29.947Z,20.80
2022-12-08T22:44:57.726Z,23.20
2022-12-08T22:47:25.657Z,23.30
2022-12-08T22:49:53.481Z,17.90
2022-12-08T22:52:21.259Z,23.30
2022-12-08T22:54:49.168Z,18.50
2022-12-08T22:57:17.016Z,22.30
2022-12-08T22:59:44.788Z,18.70
2022-12-08T23:02:12.609Z,17.60
2022-12-08T23:04:40.518Z,15.80
2022-12-08T23:07:08.364Z,14.00
2022-12-08T23:09:36.017Z,16.40
2022-12-08T23:12:04.780Z,16.00
2022-12-08T23:14:32.443Z,23.40
2022-12-08T23:17:00.313Z,20.40
2022-12-08T23:19:28.305Z,20.80
2022-12-08T23:21:56.179Z,17.50
2022-12-08T23:24:24.091Z,18.30
2022-12-08T23:26:51.920Z,23.80
2022-12-08T23:29:19.668Z,20.20
2022-12-08T23:31:47.517Z,20.50
2022-12-08T23:34:15.400Z,18.60
2022-12-08T23:36:43.329Z,19.40
2022-12-08T23:39:11.795Z,19.60
2022-12-08T23:41:39.705Z,18.60
2022-12-08T23:44:09.115Z,18.10
2022-12-08T23:46:36.979Z,22.40
2022-12-08T23:49:04.903Z,20.70
2022-12-08T23:51:32.831Z,23.30
2022-12-08T23:54:00.794Z,21.20
2022-12-08T23:56:30.523Z,19.40
2022-12-08T23:59:00.630Z,21.20
